Time;durP1;ratioP1;P1;durP2;ratioP2;P2;SDS_P1;SDS_P2;PMS_P1;PMS_P2;Temp;Humidity;BMP_temperature;BMP_pressure;BME280_temperature;BME280_humidity;BME280_pressure;Samples;Min_cycle;Max_cycle;Signal;HPM_P1;HPM_P2
2022/09/02 00:01:59;;;;;;;4.87;2.60;;;18.40;63.90;;;;;;20671581;28;20241;-75
2022/09/02 00:12:01;;;;;;;4.53;2.40;;;18.20;65.20;;;;;;20671021;28;20238;-70
2022/09/02 00:22:03;;;;;;;5.87;2.20;;;18.00;64.50;;;;;;20670046;28;20234;-69
2022/09/02 00:32:05;;;;;;;5.37;2.40;;;17.90;64.30;;;;;;20668844;28;20205;-70
2022/09/02 00:42:07;;;;;;;7.77;2.47;;;17.80;64.80;;;;;;20668935;28;20237;-69
2022/09/02 00:52:19;;;;;;;2.43;2.23;;;17.60;65.10;;;;;;20668248;28;20220;-73
2022/09/02 01:02:24;;;;;;;3.43;2.50;;;17.50;65.40;;;;;;20667320;28;20236;-70
2022/09/02 01:12:28;;;;;;;4.43;2.60;;;17.40;65.70;;;;;;20667132;28;20269;-69
2022/09/02 01:22:31;;;;;;;5.33;2.60;;;17.20;66.00;;;;;;20667265;28;20247;-71
2022/09/02 01:32:33;;;;;;;4.07;2.40;;;17.10;66.50;;;;;;20666507;28;20219;-69
2022/09/02 01:42:35;;;;;;;3.00;2.20;;;17.00;67.10;;;;;;20670057;28;20247;-70
2022/09/02 01:52:36;;;;;;;2.73;2.20;;;16.90;67.80;;;;;;20681848;28;20220;-68
2022/09/02 02:02:39;;;;;;;5.23;2.27;;;16.90;67.90;;;;;;20680842;28;20762;-70
2022/09/02 02:12:43;;;;;;;3.60;2.30;;;16.80;68.30;;;;;;20680246;28;20341;-69
2022/09/02 02:22:46;;;;;;;3.27;2.57;;;16.70;68.70;;;;;;20679901;28;20241;-69
2022/09/02 02:32:49;;;;;;;3.07;2.77;;;16.50;69.40;;;;;;20678743;28;20210;-66
2022/09/02 02:42:52;;;;;;;5.17;2.87;;;16.50;70.10;;;;;;20677942;28;20241;-68
2022/09/02 02:52:55;;;;;;;9.80;2.50;;;16.40;70.50;;;;;;20677351;28;20211;-71
2022/09/02 03:03:05;;;;;;;3.93;2.90;;;16.40;70.80;;;;;;20676396;28;20267;-68
2022/09/02 03:13:09;;;;;;;4.50;2.30;;;16.20;71.50;;;;;;20675525;28;20596;-69
2022/09/02 03:23:12;;;;;;;3.77;2.70;;;16.10;71.70;;;;;;20675364;28;20602;-69
2022/09/02 03:33:13;;;;;;;3.10;2.60;;;16.00;71.90;;;;;;20674220;28;20207;-68
2022/09/02 03:43:15;;;;;;;3.23;2.80;;;15.90;72.30;;;;;;20673402;28;20237;-69
2022/09/02 03:53:17;;;;;;;3.50;2.70;;;15.80;72.50;;;;;;20672971;28;20663;-69
2022/09/02 04:03:23;;;;;;;7.20;2.93;;;15.70;72.10;;;;;;20670968;28;20242;-68
2022/09/02 04:13:25;;;;;;;4.20;2.83;;;15.60;72.60;;;;;;20670559;28;20230;-68
2022/09/02 04:23:27;;;;;;;8.87;2.63;;;15.60;72.80;;;;;;20670169;28;20236;-73
2022/09/02 04:33:29;;;;;;;3.10;2.60;;;15.60;73.00;;;;;;20669097;28;20214;-66
2022/09/02 04:43:30;;;;;;;3.33;2.70;;;15.50;73.50;;;;;;20668345;28;20596;-72
2022/09/02 04:53:33;;;;;;;4.63;2.80;;;15.40;73.70;;;;;;20667844;28;20210;-69
2022/09/02 05:03:36;;;;;;;10.03;3.37;;;15.30;74.00;;;;;;20666926;28;20316;-70
2022/09/02 05:13:39;;;;;;;9.50;3.67;;;15.20;74.10;;;;;;20666405;28;20736;-71
2022/09/02 05:23:42;;;;;;;14.90;4.90;;;15.30;74.20;;;;;;20663629;28;20707;-73
2022/09/02 05:33:44;;;;;;;8.13;3.63;;;15.30;74.40;;;;;;20663073;28;20245;-69
2022/09/02 05:43:47;;;;;;;13.67;4.33;;;15.40;75.00;;;;;;20664955;28;20238;-71
2022/09/02 05:53:57;;;;;;;18.23;4.80;;;15.50;75.20;;;;;;20658479;28;20215;-71
2022/09/02 06:04:01;;;;;;;12.57;4.90;;;15.50;75.10;;;;;;20655720;28;20234;-71
2022/09/02 06:14:04;;;;;;;14.60;4.77;;;15.80;75.30;;;;;;20638001;28;20237;-74
2022/09/02 06:24:08;;;;;;;13.77;4.80;;;16.20;74.90;;;;;;20661137;28;20243;-72
2022/09/02 06:34:12;;;;;;;8.47;4.17;;;16.40;74.90;;;;;;20674631;28;20210;-75
2022/09/02 06:44:15;;;;;;;14.03;4.50;;;16.60;74.40;;;;;;20679043;28;20234;-73
2022/09/02 06:54:19;;;;;;;10.77;4.10;;;16.90;73.80;;;;;;20677872;28;20205;-74
2022/09/02 07:14:42;;;;;;;6.57;3.00;;;17.50;72.00;;;;;;20675509;28;20243;-72
2022/09/02 07:24:45;;;;;;;4.50;2.10;;;17.90;71.80;;;;;;20674382;28;20245;-74
2022/09/02 07:34:47;;;;;;;4.53;2.40;;;18.30;69.80;;;;;;20672916;28;20218;-71
2022/09/02 07:44:49;;;;;;;4.20;2.30;;;18.50;68.50;;;;;;20672217;28;20328;-73
2022/09/02 07:54:51;;;;;;;5.63;2.10;;;18.90;67.60;;;;;;20671627;28;20254;-77
2022/09/02 08:04:53;;;;;;;3.83;1.97;;;19.20;66.90;;;;;;20670633;28;20239;-72
2022/09/02 08:14:56;;;;;;;5.30;1.80;;;19.40;65.80;;;;;;20669600;28;20269;-73
2022/09/02 08:24:59;;;;;;;2.97;1.83;;;19.70;64.60;;;;;;20668868;28;20239;-72
2022/09/02 08:35:03;;;;;;;5.00;1.80;;;19.90;63.50;;;;;;20669570;28;20217;-74
2022/09/02 08:45:20;;;;;;;4.97;1.70;;;20.20;62.60;;;;;;20667359;28;20605;-73
2022/09/02 08:55:29;;;;;;;5.43;1.80;;;20.40;61.30;;;;;;20667460;28;20217;-75
2022/09/02 09:05:52;;;;;;;5.77;1.90;;;20.70;60.00;;;;;;20667078;28;20244;-74
2022/09/02 09:16:21;;;;;;;4.83;1.90;;;20.90;58.80;;;;;;20665820;28;20233;-74
2022/09/02 09:26:29;;;;;;;3.07;1.90;;;21.20;58.00;;;;;;20664969;28;20234;-73
2022/09/02 09:36:50;;;;;;;2.53;1.50;;;21.40;57.20;;;;;;20664894;28;20210;-74
2022/09/02 09:47:04;;;;;;;2.00;1.50;;;21.60;56.30;;;;;;20664467;28;20248;-73
2022/09/02 09:57:20;;;;;;;3.97;1.43;;;21.80;55.20;;;;;;20664701;28;20214;-73
2022/09/02 10:07:51;;;;;;;2.03;1.40;;;22.00;54.40;;;;;;20674923;28;20246;-75
2022/09/02 10:18:32;;;;;;;2.73;1.40;;;22.20;53.80;;;;;;20679610;28;20707;-77
2022/09/02 10:29:28;;;;;;;2.40;1.57;;;22.60;51.90;;;;;;20678477;28;20314;-71
2022/09/02 10:39:54;;;;;;;3.00;1.63;;;22.90;49.10;;;;;;20658830;28;20216;-73
2022/09/02 10:50:06;;;;;;;1.80;1.37;;;23.20;47.00;;;;;;20676783;28;20242;-73
2022/09/02 11:00:19;;;;;;;2.20;1.30;;;23.10;46.20;;;;;;20658079;28;20433;-72
2022/09/02 11:10:51;;;;;;;13.67;1.43;;;23.10;46.10;;;;;;20674346;28;20245;-71
2022/09/02 11:21:02;;;;;;;2.90;1.20;;;23.20;45.80;;;;;;20673374;28;20241;-71
2022/09/02 11:31:17;;;;;;;1.57;1.20;;;23.30;45.30;;;;;;20671870;28;20359;-75
2022/09/02 11:41:43;;;;;;;3.63;1.30;;;23.40;45.10;;;;;;20671600;28;20221;-71
2022/09/02 11:51:59;;;;;;;2.50;1.50;;;23.30;45.10;;;;;;20671558;28;20222;-72
2022/09/02 12:02:04;;;;;;;3.73;1.97;;;23.60;45.00;;;;;;20669922;28;20590;-73
2022/09/02 12:12:06;;;;;;;3.73;1.10;;;23.90;44.50;;;;;;20670198;28;20242;-72
2022/09/02 12:22:14;;;;;;;1.73;1.37;;;24.10;43.80;;;;;;20669825;28;20317;-71
2022/09/02 12:33:01;;;;;;;1.90;1.13;;;24.40;43.40;;;;;;20668010;28;20218;-73
2022/09/02 12:43:15;;;;;;;2.33;1.10;;;24.50;43.00;;;;;;20423716;28;20230;-71
2022/09/02 12:53:31;;;;;;;3.67;1.60;;;24.60;42.60;;;;;;20667276;28;20237;-72
2022/09/02 13:03:39;;;;;;;3.57;1.30;;;24.60;42.10;;;;;;20666390;28;20744;-73
2022/09/02 13:13:47;;;;;;;1.90;1.03;;;24.70;41.70;;;;;;20666373;28;20234;-73
2022/09/02 13:24:11;;;;;;;1.30;1.20;;;24.70;41.30;;;;;;20666145;28;20329;-74
2022/09/02 13:34:13;;;;;;;3.83;1.10;;;24.50;41.00;;;;;;20665358;28;20293;-72
2022/09/02 13:44:28;;;;;;;1.20;1.10;;;24.50;41.00;;;;;;20663491;28;20237;-74
2022/09/02 13:54:36;;;;;;;2.30;1.80;;;24.60;40.80;;;;;;20681034;28;20212;-73
2022/09/02 14:04:38;;;;;;;1.20;1.10;;;24.70;40.60;;;;;;20680379;28;20332;-72
2022/09/02 14:14:41;;;;;;;3.10;1.87;;;24.80;40.30;;;;;;20678909;28;20728;-72
2022/09/02 14:24:43;;;;;;;1.90;1.13;;;25.10;40.00;;;;;;20679342;28;20238;-72
2022/09/02 14:34:47;;;;;;;5.13;1.43;;;25.50;39.60;;;;;;20678640;28;20205;-72
2022/09/02 14:44:49;;;;;;;4.00;1.40;;;25.70;39.10;;;;;;20678008;28;20240;-72
2022/09/02 14:54:53;;;;;;;3.83;1.60;;;25.90;39.10;;;;;;20676785;28;20206;-71
2022/09/02 15:04:56;;;;;;;2.20;1.40;;;25.50;39.50;;;;;;20676486;28;20249;-77
2022/09/02 15:14:59;;;;;;;3.00;1.20;;;25.30;40.10;;;;;;20675430;28;20248;-72
2022/09/02 15:25:03;;;;;;;4.00;1.40;;;25.30;40.20;;;;;;20675053;28;20241;-72
2022/09/02 15:35:05;;;;;;;3.80;1.37;;;25.20;40.30;;;;;;20674644;28;20210;-72
2022/09/02 15:45:08;;;;;;;6.17;1.70;;;25.10;40.30;;;;;;20673700;28;20280;-72
2022/09/02 15:55:09;;;;;;;5.63;1.60;;;24.70;41.10;;;;;;20672949;28;20640;-72
2022/09/02 16:05:12;;;;;;;3.80;1.30;;;24.50;41.60;;;;;;20671049;28;20333;-72
2022/09/02 16:15:14;;;;;;;3.03;1.87;;;24.20;41.60;;;;;;20671057;28;20265;-72
2022/09/02 16:25:16;;;;;;;2.80;1.50;;;24.00;41.50;;;;;;20670461;28;20645;-71
2022/09/02 16:35:17;;;;;;;3.70;1.50;;;23.90;41.80;;;;;;20670318;28;20674;-72
2022/09/02 16:45:19;;;;;;;3.47;1.20;;;23.80;42.00;;;;;;20668940;28;20242;-72
2022/09/02 16:55:21;;;;;;;2.93;1.10;;;23.70;42.40;;;;;;20668387;28;20713;-71
2022/09/02 17:05:22;;;;;;;4.73;1.33;;;23.50;42.50;;;;;;20668340;28;20237;-71
2022/09/02 17:15:25;;;;;;;1.90;1.20;;;23.40;42.80;;;;;;20667222;28;20238;-72
2022/09/02 17:25:26;;;;;;;2.50;1.80;;;23.30;42.90;;;;;;20666742;28;20238;-74
2022/09/02 17:35:28;;;;;;;2.20;1.40;;;23.20;43.00;;;;;;20666762;28;20221;-73
2022/09/02 17:45:30;;;;;;;1.77;1.37;;;23.10;43.20;;;;;;20665671;28;20328;-72
2022/09/02 17:55:32;;;;;;;3.53;1.60;;;22.90;43.40;;;;;;20665708;28;20693;-73
2022/09/02 18:05:43;;;;;;;8.93;1.60;;;22.80;43.70;;;;;;20665751;28;20269;-72
2022/09/02 18:15:53;;;;;;;3.03;1.53;;;22.60;44.00;;;;;;20664947;28;20236;-74
2022/09/02 18:26:20;;;;;;;5.00;1.60;;;22.50;44.30;;;;;;20670463;28;20244;-73
2022/09/02 18:36:35;;;;;;;4.90;1.80;;;22.30;44.40;;;;;;20662092;28;20568;-72
2022/09/02 18:46:57;;;;;;;3.20;1.77;;;22.20;44.80;;;;;;20660990;28;20706;-73
2022/09/02 18:57:06;;;;;;;6.17;1.70;;;22.10;45.20;;;;;;20677671;28;20214;-72
2022/09/02 19:17:31;;;;;;;3.13;1.70;;;21.90;46.00;;;;;;20675778;28;20616;-76
2022/09/02 19:27:36;;;;;;;3.27;1.80;;;21.70;46.10;;;;;;20674953;28;20247;-74
2022/09/02 19:37:38;;;;;;;5.37;2.10;;;21.60;46.50;;;;;;20674350;28;20304;-71
2022/09/02 19:47:45;;;;;;;4.67;1.70;;;21.50;46.90;;;;;;20673256;28;20244;-72
2022/09/02 19:58:07;;;;;;;6.77;2.00;;;21.30;47.40;;;;;;20657609;28;20741;-73
2022/09/02 20:08:09;;;;;;;4.57;1.70;;;21.20;48.10;;;;;;20654781;28;20244;-77
2022/09/02 20:18:13;;;;;;;2.40;1.80;;;21.00;48.40;;;;;;20653642;28;20240;-71
2022/09/02 20:28:24;;;;;;;4.43;1.80;;;20.80;48.80;;;;;;20670455;28;20286;-72
2022/09/02 20:38:34;;;;;;;5.20;2.00;;;20.80;49.10;;;;;;20670150;28;20785;-73
2022/09/02 20:49:03;;;;;;;3.73;1.70;;;20.60;49.30;;;;;;20668374;28;20245;-72
2022/09/02 20:59:14;;;;;;;7.40;2.10;;;20.60;49.40;;;;;;20668871;28;20208;-73
2022/09/02 21:09:32;;;;;;;2.90;2.07;;;20.40;49.90;;;;;;20667922;28;20298;-73
2022/09/02 21:19:46;;;;;;;2.03;1.80;;;20.30;50.50;;;;;;20667484;28;20274;-72
2022/09/02 21:30:01;;;;;;;7.73;2.10;;;20.10;50.80;;;;;;20666717;28;20698;-73
2022/09/02 21:40:08;;;;;;;2.73;1.70;;;20.10;50.70;;;;;;20666452;28;20669;-72
2022/09/02 21:50:52;;;;;;;3.70;2.70;;;20.00;50.60;;;;;;20666343;28;20242;-74
2022/09/02 22:01:03;;;;;;;2.73;1.80;;;19.90;50.60;;;;;;20674125;28;20571;-76
2022/09/02 22:11:33;;;;;;;4.43;1.80;;;19.80;50.90;;;;;;20687041;28;20321;-76
2022/09/02 22:21:45;;;;;;;2.30;1.70;;;19.70;51.60;;;;;;20603186;28;20208;-73
2022/09/02 22:31:49;;;;;;;2.63;1.80;;;19.50;52.50;;;;;;20599617;28;20236;-76
2022/09/02 22:42:01;;;;;;;4.73;2.13;;;19.40;53.10;;;;;;20598940;28;20691;-74
2022/09/02 23:03:03;;;;;;;2.60;1.90;;;19.00;55.10;;;;;;20598737;28;20222;-74
2022/09/02 23:13:21;;;;;;;2.67;1.60;;;18.90;55.00;;;;;;20614758;28;20370;-72
2022/09/02 23:23:47;;;;;;;2.67;1.70;;;18.80;54.80;;;;;;20676136;28;20234;-73
2022/09/02 23:33:51;;;;;;;2.03;1.80;;;18.70;55.00;;;;;;20676055;28;20665;-75
2022/09/02 23:43:53;;;;;;;2.20;1.80;;;18.60;55.30;;;;;;20674620;28;20239;-74
2022/09/02 23:54:00;;;;;;;2.40;1.73;;;18.40;55.60;;;;;;20674204;28;20223;-74
